createdAt,value
2022-11-05T00:02:15.449Z,7.00
2022-11-05T00:08:35.819Z,7.00
2022-11-05T00:14:56.063Z,7.00
2022-11-05T00:20:57.954Z,7.10
2022-11-05T00:26:59.765Z,7.00
2022-11-05T00:33:04.369Z,7.10
2022-11-05T00:39:06.412Z,7.00
2022-11-05T00:45:08.782Z,7.00
2022-11-05T00:58:16.394Z,7.00
2022-11-05T01:04:31.145Z,7.10
2022-11-05T01:10:52.198Z,7.10
2022-11-05T01:17:37.865Z,7.10
2022-11-05T01:23:57.879Z,7.10
2022-11-05T01:30:02.799Z,7.10
2022-11-05T01:36:05.910Z,7.00
2022-11-05T01:42:56.519Z,7.00
2022-11-05T01:50:00.651Z,7.00
2022-11-05T01:56:15.785Z,6.80
2022-11-05T02:16:26.050Z,5.90
2022-11-05T02:23:29.899Z,5.60
2022-11-05T02:30:03.703Z,5.40
2022-11-05T02:37:01.292Z,5.10
2022-11-05T02:43:58.836Z,5.00
2022-11-05T02:50:26.362Z,4.90
2022-11-05T02:57:25.921Z,4.70
2022-11-05T03:04:14.323Z,4.60
2022-11-05T03:10:52.461Z,4.40
2022-11-05T03:24:37.851Z,4.30
2022-11-05T03:30:52.293Z,4.30
2022-11-05T03:37:30.710Z,4.20
2022-11-05T03:44:08.401Z,4.10
2022-11-05T03:50:40.021Z,3.90
2022-11-05T04:03:47.638Z,3.80
2022-11-05T04:17:17.957Z,3.70
2022-11-05T04:24:01.480Z,3.60
2022-11-05T04:30:36.011Z,3.50
2022-11-05T04:36:58.690Z,3.30
2022-11-05T04:43:29.417Z,3.30
2022-11-05T04:49:45.618Z,3.30
2022-11-05T04:56:25.341Z,3.20
2022-11-05T05:02:41.381Z,3.10
2022-11-05T05:09:50.601Z,3.00
2022-11-05T05:16:04.978Z,2.90
2022-11-05T05:22:27.679Z,2.90
2022-11-05T05:29:00.446Z,2.90
2022-11-05T05:35:23.361Z,2.80
2022-11-05T05:42:03.574Z,2.80
2022-11-05T05:48:49.716Z,2.80
2022-11-05T11:48:35.299Z,12.60
2022-11-05T11:54:37.130Z,12.90
2022-11-05T12:00:50.047Z,12.90
2022-11-05T12:07:04.042Z,12.90
2022-11-05T12:13:20.967Z,13.30
2022-11-05T12:19:50.651Z,13.60
2022-11-05T12:26:23.065Z,14.00
2022-11-05T12:32:40.113Z,13.80
2022-11-05T12:39:16.193Z,13.70
2022-11-05T12:45:44.000Z,13.90
2022-11-05T12:52:05.821Z,13.80
2022-11-05T12:58:24.994Z,13.50
2022-11-05T13:05:02.111Z,13.30
2022-11-05T13:11:16.535Z,13.20
2022-11-05T13:17:22.761Z,13.50
2022-11-05T13:23:56.822Z,13.80
2022-11-05T13:30:03.880Z,14.10
2022-11-05T13:36:41.696Z,14.00
2022-11-05T13:43:22.788Z,13.80
2022-11-05T13:49:43.427Z,13.80
2022-11-05T13:56:09.845Z,13.80
2022-11-05T14:02:20.455Z,13.70
2022-11-05T14:08:27.799Z,13.10
2022-11-05T14:14:46.839Z,12.90
2022-11-05T14:21:26.699Z,12.40
2022-11-05T14:27:34.624Z,12.30
2022-11-05T14:33:39.947Z,12.10
2022-11-05T14:39:42.118Z,12.00
2022-11-05T14:46:06.217Z,11.90
2022-11-05T14:52:10.749Z,11.60
2022-11-05T14:58:29.396Z,11.20
2022-11-05T15:04:35.644Z,10.80
2022-11-05T15:10:39.002Z,10.60
2022-11-05T15:16:44.677Z,10.30
2022-11-05T15:22:52.542Z,10.10
2022-11-05T15:28:56.294Z,10.10
2022-11-05T15:34:58.120Z,9.80
2022-11-05T15:41:44.277Z,9.80
2022-11-05T15:47:46.358Z,9.60
2022-11-05T15:54:08.848Z,9.20
2022-11-05T16:00:20.498Z,9.00
2022-11-05T16:06:29.349Z,8.90
2022-11-05T16:12:36.728Z,8.80
2022-11-05T16:18:38.830Z,8.70
2022-11-05T16:24:41.968Z,8.70
2022-11-05T16:30:53.325Z,8.70
2022-11-05T16:36:56.966Z,8.70
2022-11-05T16:43:15.148Z,8.60
2022-11-05T16:49:17.056Z,8.60
2022-11-05T16:55:19.433Z,8.50
2022-11-05T17:01:22.863Z,8.50
2022-11-05T17:07:24.806Z,8.40
2022-11-05T17:13:27.018Z,8.40
2022-11-05T17:19:28.856Z,8.40
2022-11-05T17:25:31.030Z,8.40
2022-11-05T17:31:32.842Z,8.30
2022-11-05T17:37:34.768Z,8.30
2022-11-05T17:43:36.599Z,8.30
2022-11-05T17:49:38.416Z,8.20
2022-11-05T17:55:41.967Z,8.10
2022-11-05T18:01:45.981Z,8.00
2022-11-05T18:07:48.737Z,7.90
2022-11-05T18:13:50.586Z,7.80
2022-11-05T18:19:52.560Z,7.60
2022-11-05T18:25:54.431Z,7.60
2022-11-05T18:31:56.315Z,7.50
2022-11-05T18:37:58.100Z,7.40
2022-11-05T18:44:01.690Z,7.50
2022-11-05T18:50:05.390Z,7.40
2022-11-05T18:56:12.607Z,7.40
2022-11-05T19:02:14.959Z,7.40
2022-11-05T19:08:16.959Z,7.30
2022-11-05T19:14:19.031Z,7.20
2022-11-05T19:20:20.869Z,7.10
2022-11-05T19:26:28.842Z,7.20
2022-11-05T19:32:30.954Z,7.30
2022-11-05T19:38:33.266Z,7.50
2022-11-05T19:44:35.162Z,7.60
2022-11-05T19:50:41.636Z,7.70
2022-11-05T19:56:43.445Z,7.70
2022-11-05T20:02:48.521Z,7.80
2022-11-05T20:09:19.881Z,7.90
2022-11-05T20:15:12.279Z,7.90
2022-11-05T20:21:14.165Z,7.90
2022-11-05T20:27:16.023Z,7.80
2022-11-05T20:33:17.900Z,7.80
2022-11-05T20:39:21.176Z,7.70
2022-11-05T20:45:23.032Z,7.70
2022-11-05T20:51:25.538Z,7.70
2022-11-05T20:57:27.356Z,7.70
2022-11-05T21:03:54.211Z,7.70
2022-11-05T21:10:02.302Z,7.70
2022-11-05T21:16:06.930Z,7.70
2022-11-05T21:22:08.951Z,7.60
2022-11-05T21:28:49.862Z,7.70
2022-11-05T21:34:51.891Z,7.60
2022-11-05T21:40:53.845Z,7.60
2022-11-05T21:46:59.170Z,7.60
2022-11-05T21:53:19.473Z,7.70
2022-11-05T21:59:41.943Z,7.70
2022-11-05T22:05:43.990Z,7.80
2022-11-05T22:11:45.769Z,7.90
2022-11-05T22:17:50.519Z,7.90
2022-11-05T22:23:52.861Z,7.90
2022-11-05T22:29:55.109Z,7.80
2022-11-05T22:35:56.930Z,7.70
2022-11-05T22:42:02.957Z,7.70
2022-11-05T22:48:09.870Z,7.60
2022-11-05T22:54:12.259Z,7.40
2022-11-05T23:00:17.320Z,7.30
2022-11-05T23:06:43.284Z,7.30
2022-11-05T23:12:45.159Z,7.30
2022-11-05T23:19:09.738Z,7.20
2022-11-05T23:25:16.930Z,7.10
2022-11-05T23:31:37.136Z,7.00
2022-11-05T23:37:57.467Z,6.80
2022-11-05T23:44:17.828Z,6.70
2022-11-05T23:50:19.642Z,6.70
2022-11-05T23:56:23.700Z,6.60
